createdAt,value
2019-01-31T00:02:10.254Z,83.70
2019-01-31T00:07:50.546Z,83.80
2019-01-31T00:13:31.811Z,83.80
2019-01-31T00:18:43.263Z,83.70
2019-01-31T00:24:25.053Z,84.10
2019-01-31T00:30:11.065Z,84.10
2019-01-31T00:35:44.805Z,84.00
2019-01-31T00:41:34.966Z,84.10
2019-01-31T00:47:07.083Z,84.20
2019-01-31T00:52:34.483Z,84.40
2019-01-31T00:58:00.275Z,84.50
2019-01-31T01:03:40.868Z,84.50
2019-01-31T01:09:16.632Z,84.80
2019-01-31T01:14:42.512Z,84.70
2019-01-31T01:20:17.307Z,84.80
2019-01-31T01:25:31.463Z,84.80
2019-01-31T01:30:53.171Z,84.90
2019-01-31T01:36:16.210Z,84.90
2019-01-31T01:41:53.510Z,85.30
2019-01-31T01:47:23.046Z,85.20
2019-01-31T01:52:49.055Z,85.20
2019-01-31T01:58:23.044Z,85.60
2019-01-31T02:04:02.475Z,85.50
2019-01-31T02:09:30.222Z,85.50
2019-01-31T02:14:58.779Z,85.60
2019-01-31T02:20:38.122Z,85.60
2019-01-31T02:26:27.791Z,85.60
2019-01-31T02:32:00.607Z,85.70
2019-01-31T02:37:23.083Z,85.80
2019-01-31T02:42:41.320Z,85.80
2019-01-31T02:48:20.182Z,86.00
2019-01-31T02:54:08.214Z,86.10
2019-01-31T02:59:24.903Z,85.90
2019-01-31T03:04:50.983Z,86.00
2019-01-31T03:10:17.546Z,85.70
2019-01-31T03:15:28.874Z,85.70
2019-01-31T03:21:00.678Z,85.90
2019-01-31T03:26:21.663Z,85.60
2019-01-31T03:31:56.616Z,85.60
2019-01-31T03:37:49.673Z,85.80
2019-01-31T03:43:13.543Z,85.80
2019-01-31T03:48:32.727Z,86.10
2019-01-31T03:54:25.328Z,86.10
2019-01-31T04:00:00.411Z,86.20
2019-01-31T04:05:28.270Z,86.20
2019-01-31T04:10:31.981Z,86.10
2019-01-31T04:15:35.810Z,85.90
2019-01-31T04:20:39.502Z,85.80
2019-01-31T04:25:43.678Z,85.70
2019-01-31T04:30:47.359Z,85.60
2019-01-31T04:35:51.048Z,85.30
2019-01-31T04:40:54.747Z,85.40
2019-01-31T04:45:58.509Z,85.30
2019-01-31T04:51:02.194Z,85.30
2019-01-31T04:56:05.998Z,85.30
2019-01-31T05:01:09.762Z,85.20
2019-01-31T05:06:13.456Z,85.30
2019-01-31T05:11:17.142Z,85.10
2019-01-31T05:16:20.822Z,85.10
2019-01-31T05:21:24.859Z,85.10
2019-01-31T05:26:28.836Z,85.10
2019-01-31T05:31:32.607Z,85.20
2019-01-31T05:36:36.415Z,85.30
2019-01-31T05:41:40.586Z,85.10
2019-01-31T05:46:44.268Z,85.30
2019-01-31T05:51:48.025Z,85.30
2019-01-31T05:56:51.789Z,85.40
2019-01-31T06:01:55.482Z,85.20
2019-01-31T06:07:10.711Z,84.90
2019-01-31T06:12:04.671Z,85.20
2019-01-31T06:17:08.434Z,85.20
2019-01-31T06:22:12.122Z,85.30
2019-01-31T06:27:16.063Z,85.40
2019-01-31T06:32:19.759Z,85.30
2019-01-31T06:37:23.434Z,85.50
2019-01-31T06:42:27.138Z,85.30
2019-01-31T06:47:31.076Z,85.50
2019-01-31T06:52:34.766Z,85.20
2019-01-31T06:57:38.443Z,85.10
2019-01-31T07:02:42.476Z,85.00
2019-01-31T07:07:46.322Z,85.20
2019-01-31T07:12:50.420Z,85.10
2019-01-31T07:17:54.107Z,84.90
2019-01-31T07:22:57.875Z,84.90
2019-01-31T07:28:01.546Z,84.90
2019-01-31T07:33:05.235Z,84.90
2019-01-31T07:38:09.166Z,84.80
2019-01-31T07:43:12.884Z,85.00
2019-01-31T07:48:16.570Z,84.80
2019-01-31T07:53:20.339Z,84.70
2019-01-31T07:58:24.026Z,84.30
2019-01-31T08:03:27.968Z,84.20
2019-01-31T08:08:31.664Z,84.30
2019-01-31T08:13:35.360Z,84.30
2019-01-31T08:18:39.051Z,83.90
2019-01-31T08:23:42.735Z,83.30
2019-01-31T08:28:46.424Z,83.30
2019-01-31T08:33:50.135Z,83.20
2019-01-31T08:38:53.811Z,83.30
2019-01-31T08:43:57.513Z,83.00
2019-01-31T08:49:01.275Z,82.60
2019-01-31T08:54:05.047Z,82.70
2019-01-31T08:59:08.738Z,82.40
2019-01-31T09:04:12.443Z,82.20
2019-01-31T09:09:16.131Z,81.80
2019-01-31T09:14:19.830Z,81.60
2019-01-31T09:19:23.792Z,81.80
2019-01-31T09:24:59.919Z,80.60
2019-01-31T09:30:37.051Z,80.80
2019-01-31T09:36:11.320Z,80.60
2019-01-31T09:41:47.990Z,80.60
2019-01-31T09:47:17.198Z,81.20
2019-01-31T09:53:00.190Z,81.40
2019-01-31T09:58:27.891Z,80.60
2019-01-31T10:04:11.525Z,79.80
2019-01-31T10:09:38.824Z,79.60
2019-01-31T10:14:59.831Z,79.20
2019-01-31T10:20:32.816Z,78.70
2019-01-31T10:26:11.502Z,78.20
2019-01-31T10:31:35.549Z,77.90
2019-01-31T10:37:00.274Z,77.00
2019-01-31T10:42:12.517Z,76.30
2019-01-31T10:47:54.050Z,74.90
2019-01-31T10:53:23.507Z,74.60
2019-01-31T10:58:50.489Z,74.70
2019-01-31T11:04:11.883Z,75.50
2019-01-31T11:09:39.654Z,76.30
2019-01-31T11:15:04.307Z,77.00
2019-01-31T11:20:38.988Z,77.00
2019-01-31T11:26:21.568Z,77.00
2019-01-31T11:31:41.755Z,75.60
2019-01-31T11:36:52.429Z,74.80
2019-01-31T11:42:33.254Z,74.40
2019-01-31T11:48:12.376Z,74.30
2019-01-31T11:53:32.542Z,73.40
2019-01-31T11:58:51.328Z,74.80
2019-01-31T12:03:58.691Z,74.70
2019-01-31T12:09:02.643Z,74.20
2019-01-31T12:14:06.434Z,74.50
2019-01-31T12:19:10.197Z,74.10
2019-01-31T12:24:16.516Z,74.40
2019-01-31T12:29:19.664Z,74.80
2019-01-31T12:34:23.648Z,74.50
2019-01-31T12:39:27.355Z,73.60
2019-01-31T12:44:31.110Z,74.20
2019-01-31T12:49:34.818Z,74.20
2019-01-31T12:54:38.689Z,74.80
2019-01-31T12:59:42.422Z,74.80
2019-01-31T13:04:46.191Z,75.40
2019-01-31T13:09:49.895Z,75.70
2019-01-31T13:14:53.564Z,76.00
2019-01-31T13:19:58.023Z,76.10
2019-01-31T13:25:01.846Z,76.90
2019-01-31T13:30:06.738Z,76.70
2019-01-31T13:35:10.964Z,76.80
2019-01-31T13:40:19.702Z,77.00
2019-01-31T13:45:28.655Z,77.30
2019-01-31T13:50:32.682Z,77.10
2019-01-31T13:55:36.434Z,77.30
2019-01-31T14:00:40.387Z,77.70
2019-01-31T14:05:44.070Z,77.30
2019-01-31T14:10:47.774Z,77.90
2019-01-31T14:15:53.818Z,78.60
2019-01-31T14:21:01.540Z,79.10
2019-01-31T14:26:05.531Z,80.30
2019-01-31T14:31:09.236Z,80.30
2019-01-31T14:36:12.928Z,80.60
2019-01-31T14:41:54.225Z,80.50
2019-01-31T14:47:08.679Z,80.60
2019-01-31T14:52:19.688Z,81.00
2019-01-31T14:57:27.781Z,81.30
2019-01-31T15:02:31.575Z,81.50
2019-01-31T15:07:44.742Z,81.50
2019-01-31T15:12:48.660Z,81.70
2019-01-31T15:17:53.162Z,81.70
2019-01-31T15:22:57.003Z,81.50
2019-01-31T15:28:00.717Z,81.80
2019-01-31T15:33:06.870Z,81.80
2019-01-31T15:38:10.647Z,82.00
2019-01-31T15:43:14.487Z,82.70
2019-01-31T15:48:18.386Z,82.10
2019-01-31T15:53:22.381Z,82.20
2019-01-31T15:58:26.258Z,82.40
2019-01-31T16:03:30.014Z,82.40
2019-01-31T16:08:33.942Z,82.70
2019-01-31T16:13:37.681Z,82.60
2019-01-31T16:18:41.386Z,82.90
2019-01-31T16:23:45.054Z,83.10
2019-01-31T16:28:48.753Z,83.20
2019-01-31T16:33:52.449Z,83.20
2019-01-31T16:38:56.202Z,84.00
2019-01-31T16:43:59.950Z,83.30
2019-01-31T16:49:03.714Z,83.10
2019-01-31T16:54:07.468Z,83.10
2019-01-31T16:59:11.155Z,83.20
2019-01-31T17:04:14.924Z,83.20
2019-01-31T17:09:18.609Z,83.20
2019-01-31T17:14:22.368Z,83.50
2019-01-31T17:19:26.043Z,82.90
2019-01-31T17:24:29.727Z,83.30
2019-01-31T17:29:33.411Z,83.30
2019-01-31T17:34:37.323Z,83.60
2019-01-31T17:39:41.297Z,83.60
2019-01-31T17:44:45.559Z,83.80
2019-01-31T17:49:49.426Z,84.00
2019-01-31T17:54:55.938Z,84.20
2019-01-31T17:59:59.463Z,84.20
2019-01-31T18:05:03.319Z,84.20
2019-01-31T18:10:41.435Z,84.20
2019-01-31T18:15:45.803Z,84.10
2019-01-31T18:20:50.182Z,84.50
2019-01-31T18:25:53.862Z,84.60
2019-01-31T18:30:57.547Z,84.90
2019-01-31T18:36:17.044Z,85.30
2019-01-31T18:47:31.789Z,85.90
2019-01-31T18:52:55.461Z,86.20
2019-01-31T18:58:13.720Z,86.40
2019-01-31T19:03:18.286Z,87.00
2019-01-31T19:08:22.423Z,86.90
2019-01-31T19:13:26.207Z,86.80
2019-01-31T19:18:30.325Z,87.00
2019-01-31T19:23:34.194Z,87.40
2019-01-31T19:28:37.978Z,87.40
2019-01-31T19:33:41.674Z,87.50
2019-01-31T19:38:45.663Z,87.70
2019-01-31T19:43:49.611Z,87.70
2019-01-31T19:48:53.456Z,88.00
2019-01-31T19:53:57.163Z,88.00
2019-01-31T19:59:00.863Z,87.90
2019-01-31T20:04:05.056Z,87.80
2019-01-31T20:09:16.707Z,87.70
2019-01-31T20:14:20.407Z,87.80
2019-01-31T20:19:24.327Z,87.70
2019-01-31T20:24:28.163Z,87.60
2019-01-31T20:29:31.858Z,87.60
2019-01-31T20:34:37.996Z,87.60
2019-01-31T20:39:41.786Z,87.10
2019-01-31T20:44:45.563Z,87.10
2019-01-31T20:49:49.407Z,86.90
2019-01-31T20:54:53.093Z,87.00
2019-01-31T20:59:56.803Z,86.90
2019-01-31T21:05:00.795Z,86.60
2019-01-31T21:10:06.002Z,86.70
2019-01-31T21:15:13.016Z,86.50
2019-01-31T21:20:18.019Z,86.20
2019-01-31T21:25:21.959Z,86.30
2019-01-31T21:30:28.162Z,86.40
2019-01-31T21:35:32.114Z,86.50
2019-01-31T21:40:37.450Z,86.30
2019-01-31T21:45:41.272Z,86.10
2019-01-31T21:50:45.157Z,86.30
2019-01-31T21:55:49.016Z,86.40
2019-01-31T22:00:52.767Z,86.10
2019-01-31T22:05:56.539Z,86.20
2019-01-31T22:11:00.383Z,86.50
2019-01-31T22:16:04.427Z,86.80
2019-01-31T22:21:08.190Z,86.80
2019-01-31T22:26:11.883Z,86.90
2019-01-31T22:31:15.986Z,86.90
2019-01-31T22:36:19.680Z,86.90
2019-01-31T22:41:23.371Z,86.80
2019-01-31T22:46:27.059Z,87.30
2019-01-31T22:51:30.746Z,87.00
2019-01-31T22:56:34.519Z,86.90
2019-01-31T23:01:44.663Z,87.10
2019-01-31T23:06:48.822Z,87.10
2019-01-31T23:11:52.666Z,87.70
2019-01-31T23:16:56.726Z,87.90
2019-01-31T23:22:00.859Z,88.00
2019-01-31T23:27:04.695Z,88.20
2019-01-31T23:32:08.463Z,88.40
2019-01-31T23:37:12.148Z,88.40
2019-01-31T23:42:15.826Z,88.30
2019-01-31T23:47:19.518Z,88.40
2019-01-31T23:52:23.370Z,88.30
2019-01-31T23:57:27.058Z,88.10
